KHRJ

Harnett Regional Jetport Airport

Erwin, North Carolina, USA
METAR KHRJ 180825Z AUTO 00000KT 10SM OVC031 10/03 A3018 RMK AO2 T00950025
Observed Flight Rules
Dec-18 @ 08:25 UTC (20 minutes ago) Visual Flight Rules
Wind Visibility Clouds
Calm 10 miles
  • Overcast at 3,100' AGL
Temperatures Readings
Current 10°C / 50°F
Dewpoint 3°C / 37°F
Humidity 62%
Altimeter 30.18" Hg
Pressure 1022 hPa
Elevation 60
METAR KHRJ 180825Z AUTO 00000KT 10SM OVC031 10/03 A3018 RMK AO2 T00950025
Observed Flight Rules
Dec-18 @ 08:25 UTC
(20 minutes ago)
VFR
Wind Visibility
Calm 10 miles
Clouds
  • Overcast at 3,100' AGL
Temperature Dewpoint
10°C / 50°F 3°C / 37°F
Humidity Altimeter Pressure
62% 30.18" Hg 1022 hPa